Terminal Aerodrome Forecast
Issued by NWS North Platte, NE

Home | Current Version | Previous Version | Graphics & Text | Print | Product List | Glossary On
Versions: 1 2 3 4 5 6 7 8 9 10 11 12
000
FTUS43 KLBF 211100
TAFVTN
TAF
KVTN 211124Z 2112/2212 29005KT P6SM SCT100 BKN150
     FM211600 35008KT P6SM SCT150
     FM220000 VRB05KT P6SM BKN200=

USA.gov is the U.S. government's official web portal to all federal, state and local government web resources and services.